Time;durP1;ratioP1;P1;durP2;ratioP2;P2;SDS_P1;SDS_P2;PMS_P1;PMS_P2;Temp;Humidity;BMP_temperature;BMP_pressure;BME280_temperature;BME280_humidity;BME280_pressure;Samples;Min_cycle;Max_cycle;Signal;HPM_P1;HPM_P2
2023/10/24 00:01:10;;;;;;;7.17;5.43;;;10.70;99.90;;;;;;4994232;28;20189;-30
2023/10/24 00:03:35;;;;;;;8.07;5.67;;;10.60;99.90;;;;;;5020902;28;20738;-30
2023/10/24 00:06:03;;;;;;;8.63;6.07;;;10.60;99.90;;;;;;4990984;28;20208;-31
2023/10/24 00:08:29;;;;;;;6.83;5.10;;;10.60;99.90;;;;;;4994584;28;20185;-31
2023/10/24 00:11:02;;;;;;;6.90;6.07;;;10.60;99.90;;;;;;4992425;28;20190;-30
2023/10/24 00:13:29;;;;;;;10.10;6.00;;;10.60;99.90;;;;;;5009351;28;20193;-30
2023/10/24 00:15:54;;;;;;;6.87;5.47;;;10.60;99.90;;;;;;5029861;28;20229;-30
2023/10/24 00:18:20;;;;;;;8.70;6.07;;;10.60;99.90;;;;;;4999233;28;20200;-31
2023/10/24 00:20:46;;;;;;;8.00;6.40;;;10.60;99.90;;;;;;5009659;28;20178;-31
2023/10/24 00:23:12;;;;;;;6.93;6.23;;;10.50;99.90;;;;;;5026279;28;20736;-31
2023/10/24 00:25:38;;;;;;;6.57;5.80;;;10.50;99.90;;;;;;5012946;28;20237;-31
2023/10/24 00:28:04;;;;;;;8.03;5.60;;;10.50;99.90;;;;;;5009729;28;20193;-30
2023/10/24 00:30:29;;;;;;;6.07;5.47;;;10.50;99.90;;;;;;4993121;28;20187;-30
2023/10/24 00:32:55;;;;;;;8.00;5.73;;;10.50;99.90;;;;;;4993351;28;20190;-31
2023/10/24 00:35:21;;;;;;;7.87;5.20;;;10.50;99.90;;;;;;5009740;28;20238;-31
2023/10/24 00:37:47;;;;;;;7.60;5.87;;;10.50;99.90;;;;;;5013769;28;20260;-31
2023/10/24 00:40:13;;;;;;;7.77;6.13;;;10.50;99.90;;;;;;5012752;28;20194;-31
2023/10/24 00:42:39;;;;;;;6.87;5.70;;;10.50;99.90;;;;;;4997353;28;20185;-30
2023/10/24 00:45:06;;;;;;;8.27;5.97;;;10.50;99.90;;;;;;5018970;28;20285;-31
2023/10/24 00:47:32;;;;;;;6.50;5.80;;;10.50;99.90;;;;;;5014428;28;20283;-31
2023/10/24 00:49:58;;;;;;;8.50;5.73;;;10.50;99.90;;;;;;5004554;28;20240;-30
2023/10/24 00:52:25;;;;;;;7.53;6.20;;;10.50;99.90;;;;;;4997208;28;20188;-30
2023/10/24 00:54:51;;;;;;;7.90;6.23;;;10.50;99.90;;;;;;4999675;28;20241;-30
2023/10/24 00:57:17;;;;;;;10.90;5.63;;;10.50;99.90;;;;;;5013040;28;20198;-31
2023/10/24 00:59:44;;;;;;;7.57;5.93;;;10.50;99.90;;;;;;5012599;28;20185;-30
2023/10/24 01:02:11;;;;;;;6.23;5.60;;;10.50;99.90;;;;;;4995875;28;20263;-30
2023/10/24 01:04:39;;;;;;;7.90;5.93;;;10.50;99.90;;;;;;4997994;28;20694;-30
2023/10/24 01:07:05;;;;;;;6.97;5.30;;;10.60;99.90;;;;;;5016915;28;20646;-30
2023/10/24 01:09:32;;;;;;;8.00;5.63;;;10.60;99.90;;;;;;5011467;28;20182;-30
2023/10/24 01:11:59;;;;;;;6.37;5.77;;;10.60;99.90;;;;;;4995407;28;20190;-30
2023/10/24 01:14:25;;;;;;;6.23;5.33;;;10.60;99.90;;;;;;5004036;28;20201;-30
2023/10/24 01:16:51;;;;;;;5.93;5.33;;;10.60;99.90;;;;;;4995170;28;20206;-30
2023/10/24 01:19:17;;;;;;;6.90;5.43;;;10.50;99.90;;;;;;4996573;28;20190;-30
2023/10/24 01:21:45;;;;;;;6.57;5.80;;;10.50;99.90;;;;;;5015088;28;20204;-30
2023/10/24 01:24:15;;;;;;;7.40;6.40;;;10.50;99.90;;;;;;4999941;28;20218;-30
2023/10/24 01:26:42;;;;;;;7.77;5.50;;;10.50;99.90;;;;;;5010996;28;20234;-30
2023/10/24 01:29:11;;;;;;;6.37;5.70;;;10.60;99.90;;;;;;4994840;28;20198;-30
2023/10/24 01:31:37;;;;;;;8.73;6.33;;;10.60;99.90;;;;;;4989352;28;20197;-30
2023/10/24 01:34:03;;;;;;;7.50;6.13;;;10.60;99.90;;;;;;5001583;28;20188;-30
2023/10/24 01:36:30;;;;;;;6.83;5.70;;;10.50;99.90;;;;;;4996109;28;20246;-30
2023/10/24 01:38:56;;;;;;;6.20;5.60;;;10.50;99.90;;;;;;5016296;28;20191;-30
2023/10/24 01:41:21;;;;;;;7.57;5.40;;;10.50;99.90;;;;;;5003401;28;20202;-30
2023/10/24 01:43:47;;;;;;;6.97;5.90;;;10.50;99.90;;;;;;5011851;28;20220;-30
2023/10/24 01:46:13;;;;;;;8.10;5.67;;;10.50;99.90;;;;;;5003647;28;20247;-30
2023/10/24 01:48:40;;;;;;;7.60;6.07;;;10.50;99.90;;;;;;5005563;28;20194;-30
2023/10/24 01:51:06;;;;;;;6.53;5.57;;;10.40;99.90;;;;;;5012219;28;20227;-30
2023/10/24 01:53:32;;;;;;;6.73;5.40;;;10.40;99.90;;;;;;5004247;28;20220;-30
2023/10/24 01:55:57;;;;;;;8.00;5.40;;;10.40;99.90;;;;;;4990631;28;20214;-30
2023/10/24 01:58:23;;;;;;;8.40;6.13;;;10.40;99.90;;;;;;4996096;28;20215;-30
2023/10/24 02:00:49;;;;;;;6.70;5.03;;;10.40;99.90;;;;;;4993937;28;20201;-30
2023/10/24 02:03:15;;;;;;;7.53;5.87;;;10.40;99.90;;;;;;5012208;28;20210;-30
2023/10/24 02:05:41;;;;;;;7.33;5.77;;;10.40;99.90;;;;;;5013375;28;20205;-30
2023/10/24 02:08:07;;;;;;;8.97;5.70;;;10.40;99.90;;;;;;5003422;28;20188;-31
2023/10/24 02:10:32;;;;;;;6.70;5.80;;;10.40;99.90;;;;;;4993904;28;20219;-30
2023/10/24 02:12:58;;;;;;;6.53;5.73;;;10.40;99.90;;;;;;4992663;28;20268;-31
2023/10/24 02:15:26;;;;;;;6.17;5.50;;;10.40;99.90;;;;;;5019659;28;20223;-31
2023/10/24 02:17:52;;;;;;;7.37;5.80;;;10.40;99.90;;;;;;5012342;28;20186;-31
2023/10/24 02:20:17;;;;;;;7.10;6.13;;;10.40;99.90;;;;;;4995094;28;20189;-30
2023/10/24 02:22:48;;;;;;;7.17;5.70;;;10.30;99.90;;;;;;4995650;28;20283;-30
2023/10/24 02:25:15;;;;;;;11.00;6.40;;;10.30;99.90;;;;;;4994898;28;20690;-31
2023/10/24 02:27:41;;;;;;;6.97;5.73;;;10.30;99.90;;;;;;5011556;28;20247;-30
2023/10/24 02:30:07;;;;;;;7.43;5.70;;;10.30;99.90;;;;;;5003465;28;20183;-31
2023/10/24 02:32:33;;;;;;;7.90;5.60;;;10.20;99.90;;;;;;4994170;28;20275;-30
2023/10/24 02:34:59;;;;;;;6.80;5.30;;;10.20;99.90;;;;;;4993031;28;20295;-30
2023/10/24 02:37:24;;;;;;;8.90;6.33;;;10.20;99.90;;;;;;4994259;28;20185;-30
2023/10/24 02:39:50;;;;;;;9.77;6.07;;;10.20;99.90;;;;;;5008766;28;20233;-30
2023/10/24 02:42:16;;;;;;;7.53;6.00;;;10.20;99.90;;;;;;5003618;28;20240;-30
2023/10/24 02:44:42;;;;;;;6.10;5.40;;;10.20;99.90;;;;;;5012443;28;20234;-30
2023/10/24 02:47:09;;;;;;;7.70;6.00;;;10.20;99.90;;;;;;5015684;28;20188;-30
2023/10/24 02:49:35;;;;;;;6.63;5.53;;;10.10;99.90;;;;;;5012760;28;20240;-30
2023/10/24 02:52:00;;;;;;;7.27;5.80;;;10.10;99.90;;;;;;5000056;28;20212;-31
2023/10/24 02:54:26;;;;;;;7.43;5.57;;;10.10;99.90;;;;;;5010098;28;20684;-30
2023/10/24 02:56:52;;;;;;;7.00;5.30;;;10.10;99.90;;;;;;5009430;28;20191;-29
2023/10/24 02:59:18;;;;;;;6.37;5.67;;;10.10;99.90;;;;;;4988208;28;20204;-30
2023/10/24 03:01:43;;;;;;;8.27;6.07;;;10.00;99.90;;;;;;5010962;28;20287;-30
2023/10/24 03:04:09;;;;;;;6.93;6.03;;;10.00;99.90;;;;;;4994775;28;20306;-30
2023/10/24 03:06:35;;;;;;;7.53;5.80;;;10.10;99.90;;;;;;4993922;28;20641;-30
2023/10/24 03:09:01;;;;;;;7.10;6.07;;;10.10;99.90;;;;;;5010019;28;20186;-30
2023/10/24 03:11:27;;;;;;;6.77;5.70;;;10.10;99.90;;;;;;5010411;28;20182;-30
2023/10/24 03:13:53;;;;;;;6.63;5.43;;;10.10;99.90;;;;;;5010979;28;20184;-31
2023/10/24 03:16:20;;;;;;;8.07;5.93;;;10.10;99.90;;;;;;4995098;28;20308;-30
2023/10/24 03:18:46;;;;;;;8.20;5.60;;;10.20;99.90;;;;;;4995375;28;20190;-30
2023/10/24 03:21:12;;;;;;;6.37;5.40;;;10.20;99.90;;;;;;4999401;28;20180;-29
2023/10/24 03:23:40;;;;;;;7.13;5.30;;;10.20;99.90;;;;;;4995606;28;20211;-30
2023/10/24 03:26:07;;;;;;;6.30;5.20;;;10.20;99.90;;;;;;5006261;28;20209;-30
2023/10/24 03:28:33;;;;;;;6.00;5.40;;;10.20;99.90;;;;;;4994212;28;20190;-29
2023/10/24 03:31:03;;;;;;;8.73;5.80;;;10.20;99.90;;;;;;5010476;28;20176;-30
2023/10/24 03:33:31;;;;;;;6.43;5.20;;;10.30;99.90;;;;;;5010008;28;20207;-30
2023/10/24 03:35:57;;;;;;;6.43;5.70;;;10.20;99.90;;;;;;5008661;28;20209;-30
2023/10/24 03:38:24;;;;;;;6.50;5.80;;;10.20;99.90;;;;;;5010616;28;20197;-30
2023/10/24 03:40:50;;;;;;;5.63;5.03;;;10.20;99.90;;;;;;4988547;28;20190;-30
2023/10/24 03:43:18;;;;;;;6.87;5.30;;;10.20;99.90;;;;;;5009881;28;20187;-30
2023/10/24 03:45:46;;;;;;;6.43;5.00;;;10.20;99.90;;;;;;5008674;28;20215;-30
2023/10/24 03:48:17;;;;;;;8.53;5.70;;;10.20;99.90;;;;;;5006160;28;20191;-30
2023/10/24 03:50:46;;;;;;;10.27;6.17;;;10.10;99.90;;;;;;4977441;28;20238;-29
2023/10/24 03:53:19;;;;;;;6.60;5.33;;;10.10;99.90;;;;;;5011081;28;20191;-30
2023/10/24 03:55:55;;;;;;;8.20;5.90;;;10.10;99.90;;;;;;5008169;28;20204;-30
2023/10/24 03:58:21;;;;;;;7.20;5.60;;;10.00;99.90;;;;;;5007318;28;20183;-30
2023/10/24 04:00:47;;;;;;;7.30;5.87;;;10.00;99.90;;;;;;5009644;28;20319;-30
2023/10/24 04:03:14;;;;;;;8.37;6.07;;;10.00;99.90;;;;;;5006135;28;20266;-30
2023/10/24 04:05:40;;;;;;;6.53;5.50;;;10.00;99.90;;;;;;5011356;28;20258;-31
2023/10/24 04:08:07;;;;;;;10.33;6.70;;;10.00;99.90;;;;;;4992683;28;20219;-31
2023/10/24 04:10:34;;;;;;;7.83;6.17;;;9.90;99.90;;;;;;5010785;28;20184;-31
2023/10/24 04:13:01;;;;;;;8.00;6.30;;;9.90;99.90;;;;;;5009547;28;20289;-31
2023/10/24 04:15:27;;;;;;;7.77;6.17;;;9.90;99.90;;;;;;4989877;28;20211;-31
2023/10/24 04:17:54;;;;;;;11.40;6.30;;;9.90;99.90;;;;;;5003955;28;20253;-31
2023/10/24 04:20:20;;;;;;;6.90;5.37;;;10.00;99.90;;;;;;5029271;28;20178;-31
2023/10/24 04:22:49;;;;;;;6.57;5.53;;;9.90;99.90;;;;;;5005134;28;20199;-31
2023/10/24 04:25:15;;;;;;;8.07;5.87;;;9.90;99.90;;;;;;4992676;28;20209;-31
2023/10/24 04:27:41;;;;;;;8.43;5.70;;;9.90;99.90;;;;;;5009680;28;20179;-30
2023/10/24 04:30:07;;;;;;;7.37;6.20;;;9.90;99.90;;;;;;5009897;28;20261;-31
2023/10/24 04:32:33;;;;;;;6.43;5.77;;;9.90;99.90;;;;;;5010509;28;20186;-31
2023/10/24 04:35:00;;;;;;;7.43;6.10;;;9.90;99.90;;;;;;5009325;28;20293;-30
2023/10/24 04:37:26;;;;;;;7.07;5.50;;;10.00;99.90;;;;;;4985138;28;20192;-31
2023/10/24 04:39:54;;;;;;;5.40;4.90;;;10.00;99.90;;;;;;5008839;28;20187;-31
2023/10/24 04:42:21;;;;;;;7.80;5.47;;;10.00;99.90;;;;;;4993451;28;20201;-31
2023/10/24 04:44:47;;;;;;;7.83;6.10;;;10.00;99.90;;;;;;5018868;28;20208;-30
2023/10/24 04:47:13;;;;;;;8.03;5.90;;;10.00;99.90;;;;;;5020225;28;20180;-31
2023/10/24 04:49:39;;;;;;;10.43;6.10;;;10.00;99.90;;;;;;5008076;28;20191;-31
2023/10/24 04:52:05;;;;;;;6.87;5.33;;;10.10;99.90;;;;;;4992316;28;20218;-31
2023/10/24 04:54:33;;;;;;;7.33;5.93;;;10.10;99.90;;;;;;5012264;28;20216;-31
2023/10/24 04:57:00;;;;;;;7.57;5.83;;;10.10;99.90;;;;;;5008853;28;20183;-30
2023/10/24 04:59:26;;;;;;;7.97;5.90;;;10.00;99.90;;;;;;4992462;28;20180;-30
2023/10/24 05:01:52;;;;;;;5.07;4.57;;;10.10;99.90;;;;;;5007388;28;20181;-31
2023/10/24 05:04:18;;;;;;;6.67;5.20;;;10.10;99.90;;;;;;4990569;28;20219;-30
2023/10/24 05:06:44;;;;;;;6.03;5.43;;;10.10;99.90;;;;;;5006276;28;20268;-31
2023/10/24 05:09:11;;;;;;;7.63;5.03;;;10.10;99.90;;;;;;4991382;28;20205;-31
2023/10/24 05:11:39;;;;;;;6.43;5.37;;;10.10;99.90;;;;;;5009179;28;20208;-30
2023/10/24 05:14:05;;;;;;;5.73;5.00;;;10.00;99.90;;;;;;5004625;28;20188;-31
2023/10/24 05:16:31;;;;;;;6.90;4.90;;;10.10;99.90;;;;;;4999960;28;20239;-31
2023/10/24 05:18:57;;;;;;;8.47;5.90;;;10.10;99.90;;;;;;5020295;28;20228;-30
2023/10/24 05:21:23;;;;;;;6.73;5.30;;;10.00;99.90;;;;;;5011951;28;20189;-31
2023/10/24 05:23:49;;;;;;;6.93;5.00;;;10.00;99.90;;;;;;5023387;28;20206;-30
2023/10/24 05:26:14;;;;;;;9.30;5.17;;;10.00;99.90;;;;;;4996027;28;20218;-30
2023/10/24 05:28:40;;;;;;;7.20;5.43;;;10.00;99.90;;;;;;4996013;28;20188;-30
2023/10/24 05:31:07;;;;;;;7.03;5.30;;;10.00;99.90;;;;;;5004605;28;20183;-31
2023/10/24 05:33:35;;;;;;;6.03;4.90;;;10.10;99.90;;;;;;5012465;28;20189;-31
2023/10/24 05:36:01;;;;;;;7.83;5.17;;;10.10;99.90;;;;;;5012616;28;20258;-31
2023/10/24 05:38:27;;;;;;;6.37;5.03;;;10.00;99.90;;;;;;5017780;28;20238;-30
2023/10/24 05:40:53;;;;;;;6.97;5.13;;;10.00;99.90;;;;;;5005793;28;20189;-30
2023/10/24 05:43:19;;;;;;;6.10;5.10;;;10.00;99.90;;;;;;4996991;28;20179;-30
2023/10/24 05:45:44;;;;;;;5.13;4.43;;;10.00;99.90;;;;;;5022130;28;20202;-30
2023/10/24 05:48:10;;;;;;;7.63;5.97;;;10.00;99.90;;;;;;5017515;28;20178;-30
2023/10/24 05:50:36;;;;;;;13.87;10.27;;;10.00;99.90;;;;;;5017036;28;20183;-31
2023/10/24 05:53:02;;;;;;;20.73;15.50;;;10.00;99.90;;;;;;4996198;28;20176;-30
2023/10/24 05:55:28;;;;;;;25.80;19.47;;;10.10;99.90;;;;;;4995564;28;20207;-30
2023/10/24 05:57:54;;;;;;;20.83;14.47;;;10.10;99.90;;;;;;4996125;28;20186;-31
2023/10/24 06:00:20;;;;;;;17.50;13.50;;;10.10;99.90;;;;;;4992492;28;20184;-30
2023/10/24 06:02:45;;;;;;;9.90;8.60;;;10.10;99.90;;;;;;5012796;28;20276;-31
2023/10/24 06:05:11;;;;;;;10.10;9.00;;;10.10;99.90;;;;;;4996490;28;20346;-30
2023/10/24 06:07:37;;;;;;;9.17;6.33;;;10.10;99.90;;;;;;5010555;28;20179;-30
2023/10/24 06:10:03;;;;;;;7.13;5.43;;;10.10;99.90;;;;;;4996139;28;20183;-29
2023/10/24 06:12:29;;;;;;;7.20;5.60;;;10.20;99.90;;;;;;5024574;28;20186;-30
2023/10/24 06:14:55;;;;;;;6.23;5.53;;;10.20;99.90;;;;;;5021532;28;20226;-30
2023/10/24 06:17:21;;;;;;;8.73;5.27;;;10.20;99.90;;;;;;5009640;28;20618;-31
2023/10/24 06:19:49;;;;;;;5.97;5.37;;;10.20;99.90;;;;;;4995400;28;20183;-30
2023/10/24 06:22:15;;;;;;;8.40;5.53;;;10.20;99.90;;;;;;5024145;28;20269;-30
2023/10/24 06:24:41;;;;;;;7.80;5.80;;;10.20;99.90;;;;;;5025421;28;20221;-31
2023/10/24 06:27:09;;;;;;;9.30;5.80;;;10.20;99.90;;;;;;4995226;28;20184;-30
2023/10/24 06:29:35;;;;;;;7.37;5.77;;;10.20;99.90;;;;;;5011528;28;20184;-31
2023/10/24 06:32:01;;;;;;;9.80;7.20;;;10.30;99.90;;;;;;4994342;28;20187;-30
2023/10/24 06:34:27;;;;;;;8.20;7.30;;;10.20;99.90;;;;;;5012966;28;20247;-30
2023/10/24 06:36:53;;;;;;;9.30;6.80;;;10.20;99.90;;;;;;4996401;28;20198;-30
2023/10/24 06:39:19;;;;;;;16.30;6.50;;;10.20;99.90;;;;;;5026791;28;20258;-30
2023/10/24 06:41:45;;;;;;;9.13;6.37;;;10.20;99.90;;;;;;5010568;28;20184;-30
2023/10/24 06:44:21;;;;;;;9.60;7.23;;;10.20;99.90;;;;;;4996358;28;20293;-31
2023/10/24 06:46:47;;;;;;;8.27;6.90;;;10.20;99.90;;;;;;5010831;28;20192;-29
2023/10/24 06:49:13;;;;;;;8.50;6.90;;;10.20;99.90;;;;;;4995000;28;20177;-30
2023/10/24 06:51:38;;;;;;;7.43;6.40;;;10.20;99.90;;;;;;5011512;28;20188;-30
2023/10/24 06:54:04;;;;;;;7.63;6.40;;;10.20;99.90;;;;;;4994850;28;20213;-31
2023/10/24 06:56:30;;;;;;;8.47;6.03;;;10.20;99.90;;;;;;5011545;28;20470;-30
2023/10/24 06:58:56;;;;;;;6.10;5.07;;;10.30;99.90;;;;;;5011069;28;20759;-31
2023/10/24 07:01:22;;;;;;;8.27;5.63;;;10.30;99.90;;;;;;4993840;28;20184;-31
2023/10/24 07:03:47;;;;;;;7.40;5.87;;;10.30;99.90;;;;;;5027558;28;20205;-32
2023/10/24 07:06:13;;;;;;;8.73;7.23;;;10.30;99.90;;;;;;5027226;28;20205;-30
2023/10/24 07:08:40;;;;;;;8.47;6.70;;;10.30;99.90;;;;;;5026626;28;20180;-30
2023/10/24 07:11:06;;;;;;;6.90;6.10;;;10.40;99.90;;;;;;5009025;28;20180;-30
2023/10/24 07:13:37;;;;;;;8.83;6.80;;;10.40;99.90;;;;;;4991407;28;20188;-30
2023/10/24 07:16:16;;;;;;;7.13;6.43;;;10.40;99.90;;;;;;5010653;28;20237;-30
2023/10/24 07:18:42;;;;;;;7.17;5.87;;;10.40;99.90;;;;;;5009353;28;20307;-30
2023/10/24 07:21:08;;;;;;;11.67;6.87;;;10.40;99.90;;;;;;4994195;28;20192;-30
2023/10/24 07:23:34;;;;;;;7.97;6.80;;;10.40;99.90;;;;;;5017060;28;20572;-30
2023/10/24 07:26:00;;;;;;;8.87;6.80;;;10.40;99.90;;;;;;5012226;28;20206;-30
2023/10/24 07:28:25;;;;;;;9.57;7.37;;;10.40;99.90;;;;;;4993132;28;20251;-30
2023/10/24 07:30:54;;;;;;;10.20;9.20;;;10.40;99.90;;;;;;4994057;28;20196;-30
2023/10/24 07:33:20;;;;;;;10.20;9.17;;;10.40;99.90;;;;;;4994347;28;20226;-30
2023/10/24 07:35:48;;;;;;;9.03;7.70;;;10.40;99.90;;;;;;5002544;28;20230;-29
2023/10/24 07:38:14;;;;;;;9.53;7.30;;;10.50;99.90;;;;;;5002478;28;20184;-31
2023/10/24 07:40:39;;;;;;;9.60;7.00;;;10.50;99.90;;;;;;4993464;28;20188;-30
2023/10/24 07:43:07;;;;;;;8.30;7.17;;;10.50;99.90;;;;;;4994378;28;20206;-30
2023/10/24 07:45:33;;;;;;;8.07;6.73;;;10.50;99.90;;;;;;4993264;28;20255;-30
2023/10/24 07:48:00;;;;;;;6.93;6.23;;;10.50;99.90;;;;;;4995168;28;20195;-30
2023/10/24 07:50:28;;;;;;;7.63;6.57;;;10.50;99.90;;;;;;5021881;28;20272;-30
2023/10/24 07:52:54;;;;;;;12.30;7.33;;;10.60;99.90;;;;;;4997424;28;20190;-30
2023/10/24 07:55:19;;;;;;;9.63;6.27;;;10.60;99.90;;;;;;4994909;28;20301;-30
2023/10/24 07:57:46;;;;;;;9.47;7.10;;;10.60;99.90;;;;;;4994006;28;20230;-31
2023/10/24 08:00:13;;;;;;;7.50;6.37;;;10.60;99.90;;;;;;5010071;28;20195;-30
2023/10/24 08:02:39;;;;;;;11.30;7.13;;;10.60;99.90;;;;;;5008025;28;20191;-30
2023/10/24 08:05:05;;;;;;;9.00;7.50;;;10.60;99.90;;;;;;5001843;28;20226;-29
2023/10/24 08:07:31;;;;;;;8.23;7.00;;;10.60;99.90;;;;;;5018496;28;20183;-29
2023/10/24 08:09:56;;;;;;;7.67;6.87;;;10.60;99.90;;;;;;5017243;28;20177;-30
2023/10/24 08:12:22;;;;;;;9.43;7.53;;;10.60;99.90;;;;;;5009978;28;20177;-30
2023/10/24 08:14:49;;;;;;;8.13;7.03;;;10.60;99.90;;;;;;5011614;28;20218;-30
2023/10/24 08:17:15;;;;;;;7.50;6.80;;;10.60;99.90;;;;;;5008792;28;20250;-30
2023/10/24 08:19:41;;;;;;;10.20;7.40;;;10.60;99.90;;;;;;5008299;28;20183;-30
2023/10/24 08:22:07;;;;;;;10.80;7.07;;;10.70;99.90;;;;;;5011807;28;20185;-30
2023/10/24 08:24:32;;;;;;;12.67;8.23;;;10.70;99.90;;;;;;5014207;28;20216;-29
2023/10/24 08:26:58;;;;;;;12.23;10.07;;;10.70;99.90;;;;;;5009483;28;20221;-29
2023/10/24 08:29:24;;;;;;;10.90;9.33;;;10.70;99.90;;;;;;4991391;28;20179;-30
2023/10/24 08:31:50;;;;;;;13.10;9.30;;;10.70;99.90;;;;;;5009777;28;20984;-30
2023/10/24 08:34:15;;;;;;;12.60;9.60;;;10.70;99.90;;;;;;5014235;28;20252;-30
2023/10/24 08:36:41;;;;;;;13.37;10.43;;;10.70;99.90;;;;;;5004953;28;20179;-30
2023/10/24 08:39:07;;;;;;;12.13;10.33;;;10.70;99.90;;;;;;4992830;28;20188;-30
2023/10/24 08:41:33;;;;;;;11.77;10.47;;;10.70;99.90;;;;;;5009876;28;20181;-30
2023/10/24 08:44:00;;;;;;;10.33;9.00;;;10.70;99.90;;;;;;4993135;28;20223;-31
2023/10/24 08:46:25;;;;;;;14.03;10.73;;;10.70;99.90;;;;;;5001386;28;20205;-30
2023/10/24 08:48:52;;;;;;;16.00;12.13;;;10.80;99.90;;;;;;5012975;28;20196;-30
2023/10/24 08:51:18;;;;;;;13.33;10.87;;;10.80;99.90;;;;;;4985599;28;20187;-30
2023/10/24 08:53:44;;;;;;;12.00;9.37;;;10.80;99.90;;;;;;4993557;28;20184;-30
2023/10/24 08:56:10;;;;;;;12.17;8.30;;;10.90;99.90;;;;;;4996472;28;20254;-31
2023/10/24 08:58:38;;;;;;;9.20;7.57;;;10.90;99.90;;;;;;4996986;28;20188;-30
2023/10/24 09:01:07;;;;;;;9.23;7.17;;;10.90;99.90;;;;;;5014247;28;20196;-30
2023/10/24 09:03:35;;;;;;;8.60;7.23;;;10.90;99.90;;;;;;5013173;28;20293;-30
2023/10/24 09:06:01;;;;;;;10.67;7.43;;;10.90;99.90;;;;;;4996788;28;20205;-30
2023/10/24 09:08:27;;;;;;;9.67;7.53;;;10.90;99.90;;;;;;5009735;28;20199;-30
2023/10/24 09:10:53;;;;;;;8.43;7.37;;;11.00;99.90;;;;;;4998640;28;20185;-30
2023/10/24 09:13:19;;;;;;;10.03;7.87;;;11.00;99.90;;;;;;5005281;28;20239;-30
2023/10/24 09:16:07;;;;;;;10.40;7.27;;;11.00;99.90;;;;;;4993938;28;20210;-29
2023/10/24 09:18:37;;;;;;;11.40;8.30;;;11.10;99.90;;;;;;4995867;28;20220;-29
2023/10/24 09:21:06;;;;;;;10.67;8.07;;;11.10;99.90;;;;;;5006579;28;20190;-30
2023/10/24 09:23:33;;;;;;;9.90;7.70;;;11.10;99.90;;;;;;4996491;28;20218;-30
2023/10/24 09:26:04;;;;;;;12.07;8.23;;;11.20;99.90;;;;;;5010655;28;20248;-29
2023/10/24 09:28:30;;;;;;;9.20;8.03;;;11.20;99.90;;;;;;4995521;28;20178;-29
2023/10/24 09:30:59;;;;;;;10.57;8.93;;;11.20;99.90;;;;;;5014194;28;20189;-30
2023/10/24 09:33:28;;;;;;;8.60;7.67;;;11.30;99.90;;;;;;5013010;28;20183;-29
2023/10/24 09:35:55;;;;;;;8.53;7.13;;;11.30;99.90;;;;;;5012869;28;20293;-30
2023/10/24 09:38:24;;;;;;;10.37;6.57;;;11.30;99.90;;;;;;5004888;28;20173;-28
2023/10/24 09:40:52;;;;;;;7.80;6.63;;;11.30;99.90;;;;;;5012840;28;20193;-29
2023/10/24 09:43:28;;;;;;;8.10;6.03;;;11.40;99.90;;;;;;5012597;28;20198;-30
2023/10/24 09:45:56;;;;;;;8.23;6.97;;;11.40;99.90;;;;;;5012873;28;20205;-29
2023/10/24 09:48:23;;;;;;;211.17;145.43;;;11.40;99.90;;;;;;5003719;28;20202;-30
2023/10/24 09:50:51;;;;;;;16.87;12.97;;;11.40;99.90;;;;;;5008457;28;20240;-30
2023/10/24 09:53:18;;;;;;;12.80;7.60;;;11.40;99.90;;;;;;5013645;28;20274;-29
2023/10/24 09:55:49;;;;;;;13.93;8.03;;;11.50;99.90;;;;;;4998065;28;20220;-29
2023/10/24 09:58:17;;;;;;;9.30;7.47;;;11.40;99.90;;;;;;5013589;28;20190;-29
2023/10/24 10:00:45;;;;;;;9.20;7.60;;;11.40;99.90;;;;;;5012116;28;20194;-30
2023/10/24 10:03:11;;;;;;;11.30;8.50;;;11.40;99.90;;;;;;4998735;28;20283;-29
2023/10/24 10:05:38;;;;;;;9.30;8.40;;;11.40;99.90;;;;;;4994952;28;20275;-30
2023/10/24 10:08:07;;;;;;;10.57;8.03;;;11.40;99.90;;;;;;5019680;28;20552;-32
2023/10/24 10:10:38;;;;;;;8.37;7.57;;;11.50;99.90;;;;;;5012338;28;20178;-29
2023/10/24 10:13:08;;;;;;;9.83;7.53;;;11.50;99.90;;;;;;5012810;28;20197;-29
2023/10/24 10:15:45;;;;;;;10.10;7.70;;;11.50;99.90;;;;;;5031930;28;20304;-29
2023/10/24 10:18:32;;;;;;;8.90;7.90;;;11.50;99.90;;;;;;5031317;28;20197;-30
2023/10/24 10:21:21;;;;;;;11.23;7.43;;;11.60;99.90;;;;;;5011631;28;20185;-30
2023/10/24 10:24:02;;;;;;;8.90;6.90;;;11.60;99.90;;;;;;5010878;28;20224;-29
2023/10/24 10:26:49;;;;;;;7.97;5.93;;;11.60;99.90;;;;;;5004563;28;20199;-30
2023/10/24 10:29:33;;;;;;;7.87;6.30;;;11.60;99.90;;;;;;4997996;28;20243;-30
2023/10/24 10:32:25;;;;;;;11.90;7.10;;;11.70;99.90;;;;;;5009971;28;20194;-29
2023/10/24 10:34:51;;;;;;;8.60;6.60;;;11.70;99.90;;;;;;4995510;28;20210;-29
2023/10/24 10:37:17;;;;;;;8.43;6.50;;;11.70;99.90;;;;;;4994906;28;20182;-31
2023/10/24 10:40:27;;;;;;;8.53;7.27;;;11.80;99.90;;;;;;4994323;28;20198;-29
2023/10/24 10:42:54;;;;;;;8.33;7.43;;;11.80;99.90;;;;;;5028134;28;20273;-29
2023/10/24 10:45:24;;;;;;;9.03;7.43;;;11.80;99.90;;;;;;5003208;28;20220;-29
2023/10/24 10:47:51;;;;;;;9.73;7.57;;;11.90;99.90;;;;;;4994914;28;20200;-29
2023/10/24 10:50:26;;;;;;;8.73;6.87;;;11.90;99.90;;;;;;5015338;28;20187;-29
2023/10/24 10:53:01;;;;;;;10.30;7.40;;;11.90;99.90;;;;;;4995201;28;20182;-30
2023/10/24 10:55:42;;;;;;;8.40;7.30;;;11.90;99.90;;;;;;5003193;28;20248;-30
2023/10/24 10:58:19;;;;;;;8.50;7.43;;;11.90;99.90;;;;;;5008798;28;20409;-31
2023/10/24 11:01:03;;;;;;;9.20;7.33;;;11.90;99.90;;;;;;4992591;28;20282;-29
2023/10/24 11:03:44;;;;;;;8.03;6.43;;;12.00;99.90;;;;;;4995381;28;20186;-30
2023/10/24 11:06:25;;;;;;;9.10;6.43;;;12.00;99.90;;;;;;5018832;28;20210;-29
2023/10/24 11:09:27;;;;;;;6.63;5.67;;;12.00;99.90;;;;;;5017840;28;20185;-33
2023/10/24 11:12:19;;;;;;;8.23;6.63;;;12.00;99.90;;;;;;5006642;28;20202;-30
2023/10/24 11:15:11;;;;;;;10.13;7.40;;;12.10;99.90;;;;;;5013435;28;20230;-31
2023/10/24 11:17:37;;;;;;;10.33;8.10;;;12.10;99.90;;;;;;4996830;28;20180;-29
2023/10/24 11:20:05;;;;;;;11.13;7.43;;;12.10;99.90;;;;;;4988469;28;20183;-31
2023/10/24 11:22:32;;;;;;;14.87;10.53;;;12.10;99.90;;;;;;5002234;28;20221;-31
2023/10/24 11:24:58;;;;;;;14.67;12.80;;;12.10;99.90;;;;;;5015633;28;20230;-31
2023/10/24 11:27:25;;;;;;;15.10;13.33;;;12.20;99.90;;;;;;5018320;28;20241;-32
2023/10/24 11:29:55;;;;;;;13.73;11.40;;;12.20;99.90;;;;;;5007347;28;20188;-31
2023/10/24 11:32:21;;;;;;;12.17;10.20;;;12.20;99.90;;;;;;5009696;28;20190;-31
2023/10/24 11:34:47;;;;;;;11.33;9.40;;;12.20;99.90;;;;;;5008741;28;20207;-31
2023/10/24 11:37:12;;;;;;;10.37;8.30;;;12.20;99.90;;;;;;4996701;28;20244;-30
2023/10/24 11:39:42;;;;;;;9.27;8.23;;;12.20;99.90;;;;;;4990393;28;20183;-31
2023/10/24 11:42:08;;;;;;;10.07;8.37;;;12.30;99.90;;;;;;4995718;28;20187;-31
2023/10/24 11:44:33;;;;;;;10.67;7.40;;;12.30;99.90;;;;;;5016223;28;20222;-31
2023/10/24 11:47:02;;;;;;;7.83;7.03;;;12.30;99.90;;;;;;5007600;28;20233;-31
2023/10/24 11:49:35;;;;;;;8.17;6.90;;;12.30;99.90;;;;;;4995725;28;20183;-31
2023/10/24 11:52:01;;;;;;;9.93;7.70;;;12.40;99.90;;;;;;4990778;28;20183;-31
2023/10/24 11:54:27;;;;;;;10.33;7.67;;;12.40;99.90;;;;;;5009586;28;20243;-31
2023/10/24 11:56:54;;;;;;;12.23;8.17;;;12.40;99.90;;;;;;4993863;28;20183;-31
2023/10/24 11:59:20;;;;;;;8.50;7.20;;;12.40;99.90;;;;;;4990086;28;20191;-31
2023/10/24 12:01:46;;;;;;;7.67;6.57;;;12.40;99.90;;;;;;4987770;28;20184;-31
2023/10/24 12:04:13;;;;;;;9.80;7.40;;;12.50;99.90;;;;;;4995042;28;20218;-31
2023/10/24 12:06:39;;;;;;;12.00;9.00;;;12.50;99.90;;;;;;5000777;28;20456;-31
2023/10/24 12:09:06;;;;;;;11.27;8.63;;;12.50;99.90;;;;;;5004977;28;20179;-31
2023/10/24 12:11:33;;;;;;;11.23;8.27;;;12.50;99.90;;;;;;4988197;28;20233;-31
2023/10/24 12:14:00;;;;;;;14.17;8.93;;;12.50;99.90;;;;;;4994697;28;20191;-31
2023/10/24 12:16:34;;;;;;;12.13;8.60;;;12.50;99.90;;;;;;5022237;28;20219;-31
2023/10/24 12:19:00;;;;;;;9.10;7.57;;;12.50;99.90;;;;;;5007646;28;20194;-31
2023/10/24 12:21:28;;;;;;;10.93;7.40;;;12.50;99.90;;;;;;4993288;28;20175;-31
2023/10/24 12:23:53;;;;;;;9.77;7.97;;;12.60;99.90;;;;;;4989100;28;20207;-31
2023/10/24 12:26:19;;;;;;;8.67;7.77;;;12.60;99.90;;;;;;5008158;28;20210;-31
2023/10/24 12:28:45;;;;;;;10.27;7.87;;;12.60;99.90;;;;;;5009101;28;20270;-32
2023/10/24 12:31:12;;;;;;;9.63;8.60;;;12.70;99.90;;;;;;4993616;28;20183;-32
2023/10/24 12:33:38;;;;;;;8.67;7.80;;;12.70;99.90;;;;;;5007465;28;20183;-31
2023/10/24 12:36:06;;;;;;;10.23;7.53;;;12.70;99.90;;;;;;5007475;28;20206;-31
2023/10/24 12:38:34;;;;;;;10.87;7.70;;;12.80;99.90;;;;;;5008557;28;20276;-31
2023/10/24 12:41:00;;;;;;;9.53;7.43;;;12.80;99.90;;;;;;4993994;28;20215;-32
2023/10/24 12:43:28;;;;;;;8.63;7.47;;;12.80;99.90;;;;;;5009252;28;20222;-31
2023/10/24 12:45:53;;;;;;;8.00;6.53;;;12.80;99.90;;;;;;5015190;28;20191;-31